Salem, Virginia
Current Conditions -  °F | °C
As of 3:54 AM on Sunday 26 Oct 2014 (Local Time) from KROA Reporting Station
Scattered Clouds Scattered Clouds  
Wind Chill: 66°   Ceiling: Unl
Heat Index: 66°   Visibility: 10mi
Dew Point: 49°   Wind: 14mph
Humidity: 54%   Direction: 290°WNW
Pressure: 29.82"   Gusts: 31mph
Location:  37.29°N, 80.05°W
Report Text: KROA 260754Z 29012G27KT 10SM SCT055 19/09 A2982 RMK AO2 PK WND 31027/0746 SLP088 T01890094
Loading
Personal Weather Stations






























Interactive Weather Map New forecast layout! Learn more

10-Day Weather Forecast

Advertisements
Track Severe Weather on mobile